CNM weather

Cavern City Air Terminal
Carlsbad, New Mexico, United States

Public forecast

Using degrees Fahrenheit for public forecast. Weather courtesy of forecast.io.

METAR (pilot weather report)

Retrieved 2019/05/25 05:53 UTC (27 minutes ago):

KCNM 250553Z AUTO 16008KT 10SM CLR 23/15 A2991 RMK AO2 SLP071 T02280150 10339 20228 50011

TAF (pilot weather forecast)

Retrieved 2019/05/25 06:24 UTC (0 seconds ago):

TAF KCNM 250522Z 2506/2606 15009KT P6SM BKN250 FM251800 20013G22KT P6SM SCT250